createdAt,value
2022-08-05T00:01:20.946Z,2.15
2022-08-05T00:03:52.527Z,2.60
2022-08-05T00:06:32.118Z,1.92
2022-08-05T00:09:02.738Z,2.25
2022-08-05T00:11:35.185Z,2.47
2022-08-05T00:14:17.403Z,2.35
2022-08-05T00:16:52.476Z,2.40
2022-08-05T00:19:22.311Z,2.30
2022-08-05T00:21:50.732Z,2.30
2022-08-05T00:24:24.649Z,2.33
2022-08-05T00:26:53.358Z,2.25
2022-08-05T00:29:22.630Z,2.03
2022-08-05T00:32:13.385Z,2.65
2022-08-05T00:34:54.018Z,2.30
2022-08-05T00:37:50.695Z,2.58
2022-08-05T00:40:27.286Z,2.42
2022-08-05T00:42:57.281Z,2.72
2022-08-05T00:45:38.801Z,2.53
2022-08-05T00:48:11.553Z,2.00
2022-08-05T00:50:41.413Z,2.63
2022-08-05T00:54:01.161Z,2.67
2022-08-05T00:56:01.481Z,1.98
2022-08-05T00:58:29.229Z,2.42
2022-08-05T01:00:57.232Z,2.33
2022-08-05T01:03:30.920Z,2.22
2022-08-05T01:06:01.362Z,2.42
2022-08-05T01:08:43.103Z,2.63
2022-08-05T01:11:22.458Z,1.70
2022-08-05T01:13:59.731Z,3.10
2022-08-05T01:16:30.457Z,2.10
2022-08-05T01:19:01.895Z,2.35
2022-08-05T01:21:43.911Z,2.30
2022-08-05T01:24:30.145Z,2.05
2022-08-05T01:27:17.518Z,2.03
2022-08-05T01:29:51.686Z,2.17
2022-08-05T01:32:22.748Z,2.60
2022-08-05T01:34:53.490Z,2.45
2022-08-05T01:37:25.474Z,2.15
2022-08-05T01:39:59.200Z,2.20
2022-08-05T01:42:27.921Z,2.63
2022-08-05T01:44:59.185Z,2.80
2022-08-05T01:47:30.555Z,1.92
2022-08-05T01:50:15.649Z,2.55
2022-08-05T01:52:44.797Z,1.92
2022-08-05T01:55:18.855Z,2.92
2022-08-05T01:58:10.034Z,1.92
2022-08-05T02:00:38.838Z,2.10
2022-08-05T02:05:59.845Z,2.08
2022-08-05T02:08:31.169Z,1.95
2022-08-05T02:11:00.854Z,2.45
2022-08-05T02:13:36.610Z,1.98
2022-08-05T02:16:23.265Z,2.65
2022-08-05T02:18:53.611Z,2.47
2022-08-05T02:21:26.325Z,2.05
2022-08-05T02:23:57.366Z,2.35
2022-08-05T02:26:26.768Z,1.92
2022-08-05T02:28:55.779Z,2.40
2022-08-05T02:31:34.550Z,2.40
2022-08-05T02:34:04.483Z,2.70
2022-08-05T02:36:34.601Z,2.33
2022-08-05T02:39:04.621Z,2.17
2022-08-05T02:41:57.597Z,2.70
2022-08-05T02:44:26.457Z,2.35
2022-08-05T02:47:00.136Z,2.20
2022-08-05T02:49:35.882Z,2.10
2022-08-05T02:52:06.413Z,2.92
2022-08-05T02:54:37.446Z,2.45
2022-08-05T02:57:10.381Z,2.13
2022-08-05T02:59:56.012Z,2.10
2022-08-05T03:02:29.315Z,2.38
2022-08-05T03:04:58.699Z,2.17
2022-08-05T03:08:01.430Z,2.33
2022-08-05T03:10:16.120Z,1.80
2022-08-05T03:12:54.401Z,2.47
2022-08-05T03:15:24.317Z,2.08
2022-08-05T03:17:55.661Z,2.15
2022-08-05T03:20:24.431Z,2.10
2022-08-05T03:22:53.168Z,1.75
2022-08-05T03:25:33.533Z,2.38
2022-08-05T03:28:14.108Z,2.20
2022-08-05T03:30:42.529Z,2.30
2022-08-05T03:33:12.101Z,2.25
2022-08-05T03:35:41.862Z,2.90
2022-08-05T03:38:11.791Z,2.55
2022-08-05T03:40:41.359Z,2.80
2022-08-05T03:43:58.284Z,2.22
2022-08-05T03:46:01.945Z,2.75
2022-08-05T03:48:35.625Z,2.60
2022-08-05T03:52:50.258Z,2.22
2022-08-05T03:55:52.078Z,3.83
2022-08-05T03:56:46.379Z,2.72
2022-08-05T03:59:16.615Z,2.47
2022-08-05T04:01:59.102Z,2.42
2022-08-05T04:04:30.633Z,2.63
2022-08-05T04:06:59.911Z,2.85
2022-08-05T04:09:28.217Z,2.75
2022-08-05T04:11:58.669Z,2.88
2022-08-05T04:14:30.479Z,3.45
2022-08-05T04:17:02.944Z,3.50
2022-08-05T04:19:32.649Z,3.40
2022-08-05T04:22:08.467Z,3.50
2022-08-05T04:24:39.069Z,3.45
2022-08-05T04:27:43.563Z,4.40
2022-08-05T04:30:12.607Z,5.20
2022-08-05T04:32:44.679Z,5.13
2022-08-05T04:35:17.335Z,4.88
2022-08-05T04:38:02.580Z,4.28
2022-08-05T04:40:34.277Z,4.60
2022-08-05T04:43:02.392Z,4.22
2022-08-05T04:45:47.791Z,4.20
2022-08-05T04:48:27.079Z,4.53
2022-08-05T04:51:01.687Z,4.60
2022-08-05T04:53:55.521Z,5.65
2022-08-05T04:57:04.637Z,4.97
2022-08-05T04:59:56.274Z,5.65
2022-08-05T05:05:31.297Z,4.93
2022-08-05T05:08:06.091Z,5.38
2022-08-05T05:14:36.257Z,5.50
2022-08-05T05:17:07.607Z,5.65
2022-08-05T05:19:49.351Z,5.43
2022-08-05T05:22:26.112Z,6.18
2022-08-05T05:25:00.228Z,5.35
2022-08-05T05:27:48.585Z,5.75
2022-08-05T05:30:29.866Z,8.65
2022-08-05T05:33:03.498Z,5.32
2022-08-05T05:35:39.594Z,5.93
2022-08-05T05:40:48.393Z,6.68
2022-08-05T05:43:27.545Z,6.60
2022-08-05T05:46:08.497Z,6.38
2022-08-05T05:48:42.149Z,5.88
2022-08-05T05:51:15.706Z,6.07
2022-08-05T05:53:54.414Z,6.80
2022-08-05T05:56:32.900Z,6.68
2022-08-05T05:59:05.361Z,6.30
2022-08-05T06:01:37.416Z,6.40
2022-08-05T06:04:07.477Z,6.85
2022-08-05T06:06:36.063Z,6.82
2022-08-05T06:09:04.814Z,6.80
2022-08-05T06:11:34.151Z,6.80
2022-08-05T06:14:02.766Z,6.28
2022-08-05T06:16:36.681Z,6.55
2022-08-05T06:19:07.457Z,6.32
2022-08-05T06:21:37.570Z,6.10
2022-08-05T06:24:07.814Z,5.85
2022-08-05T06:26:51.290Z,6.60
2022-08-05T06:29:43.085Z,7.63
2022-08-05T06:32:25.609Z,6.13
2022-08-05T06:34:56.553Z,6.35
2022-08-05T06:37:56.114Z,4.90
2022-08-05T06:40:13.822Z,6.07
2022-08-05T06:42:43.153Z,6.00
2022-08-05T06:45:21.237Z,5.70
2022-08-05T06:48:37.045Z,6.07
2022-08-05T06:50:49.881Z,5.43
2022-08-05T06:53:27.759Z,5.60
2022-08-05T06:55:56.651Z,5.40
2022-08-05T06:58:29.670Z,5.55
2022-08-05T07:01:03.435Z,5.30
2022-08-05T07:03:33.221Z,6.10
2022-08-05T07:06:05.411Z,5.40
2022-08-05T07:08:33.416Z,6.03
2022-08-05T07:11:02.001Z,6.45
2022-08-05T07:13:57.534Z,5.38
2022-08-05T07:18:01.402Z,5.85
2022-08-05T07:22:28.154Z,5.97
2022-08-05T07:24:58.603Z,5.75
2022-08-05T07:27:27.763Z,5.97
2022-08-05T07:30:27.963Z,5.65
2022-08-05T07:32:58.878Z,5.03
2022-08-05T07:36:04.594Z,5.78
2022-08-05T07:38:32.978Z,5.38
2022-08-05T07:42:07.209Z,5.43
2022-08-05T07:43:51.588Z,4.95
2022-08-05T07:46:25.526Z,5.18
2022-08-05T07:49:03.350Z,5.30
2022-08-05T07:51:37.252Z,5.03
2022-08-05T07:54:10.134Z,5.35
2022-08-05T07:57:02.086Z,5.70
2022-08-05T07:59:38.189Z,6.60
2022-08-05T08:02:16.470Z,6.20
2022-08-05T08:04:46.230Z,6.53
2022-08-05T08:07:15.112Z,5.70
2022-08-05T08:09:43.288Z,5.72
2022-08-05T08:12:29.656Z,6.60
2022-08-05T08:15:02.168Z,6.50
2022-08-05T08:17:32.219Z,6.88
2022-08-05T08:20:22.991Z,6.15
2022-08-05T08:22:51.806Z,6.45
2022-08-05T08:25:27.041Z,6.85
2022-08-05T08:28:18.240Z,6.15
2022-08-05T08:30:56.427Z,6.28
2022-08-05T08:33:27.253Z,6.47
2022-08-05T08:36:18.427Z,7.35
2022-08-05T08:38:43.933Z,6.95
2022-08-05T08:41:22.330Z,6.50
2022-08-05T08:50:22.565Z,6.35
2022-08-05T08:53:00.409Z,4.25
2022-08-05T08:55:31.865Z,4.13
2022-08-05T08:58:17.860Z,3.85
2022-08-05T09:00:56.317Z,4.45
2022-08-05T09:03:40.607Z,3.50
2022-08-05T09:06:18.660Z,5.05
2022-08-05T09:08:54.018Z,3.72
2022-08-05T09:14:56.691Z,4.47
2022-08-05T09:16:58.404Z,3.97
2022-08-05T09:19:27.993Z,4.50
2022-08-05T09:22:22.228Z,4.50
2022-08-05T09:24:59.857Z,4.43
2022-08-05T09:28:05.541Z,3.92
2022-08-05T09:30:23.474Z,4.35
2022-08-05T09:32:52.975Z,4.70
2022-08-05T09:35:27.158Z,3.95
2022-08-05T09:38:17.603Z,4.20
2022-08-05T09:40:52.732Z,4.18
2022-08-05T09:43:40.834Z,4.15
2022-08-05T09:46:27.401Z,5.07
2022-08-05T09:49:07.322Z,5.88
2022-08-05T09:51:39.868Z,4.22
2022-08-05T09:54:08.584Z,4.50
2022-08-05T09:56:39.397Z,4.50
2022-08-05T09:59:08.348Z,4.50
2022-08-05T10:01:39.718Z,3.40
2022-08-05T10:04:16.137Z,3.97
2022-08-05T10:06:59.043Z,3.67
2022-08-05T10:09:29.474Z,3.60
2022-08-05T10:12:30.306Z,4.32
2022-08-05T10:15:13.096Z,4.40
2022-08-05T10:17:47.396Z,3.92
2022-08-05T10:20:25.194Z,3.42
2022-08-05T10:22:53.450Z,3.35
2022-08-05T10:25:21.615Z,3.00
2022-08-05T10:28:13.249Z,3.45
2022-08-05T10:32:48.444Z,3.58
2022-08-05T10:33:31.130Z,2.80
2022-08-05T10:36:04.939Z,3.20
2022-08-05T10:38:33.727Z,3.22
2022-08-05T10:41:05.045Z,3.60
2022-08-05T10:43:43.748Z,3.80
2022-08-05T10:46:15.666Z,2.65
2022-08-05T10:48:57.396Z,2.87
2022-08-05T10:51:29.313Z,2.70
2022-08-05T10:54:00.907Z,2.83
2022-08-05T10:56:31.274Z,3.15
2022-08-05T10:59:12.703Z,3.28
2022-08-05T11:02:07.317Z,2.60
2022-08-05T11:04:43.991Z,2.78
2022-08-05T11:07:16.320Z,2.95
2022-08-05T11:09:46.921Z,3.20
2022-08-05T11:12:33.876Z,3.00
2022-08-05T11:15:19.786Z,2.75
2022-08-05T11:17:57.478Z,3.13
2022-08-05T11:20:43.678Z,2.72
2022-08-05T11:23:33.703Z,2.65
2022-08-05T11:26:29.248Z,2.22
2022-08-05T11:29:12.667Z,2.53
2022-08-05T11:31:58.744Z,2.80
2022-08-05T11:34:39.535Z,2.50
2022-08-05T11:38:30.246Z,2.72
2022-08-05T11:40:03.117Z,2.58
2022-08-05T11:42:37.963Z,2.53
2022-08-05T11:45:23.198Z,2.38
2022-08-05T11:47:58.773Z,1.98
2022-08-05T11:50:27.092Z,1.77
2022-08-05T11:52:57.981Z,1.80
2022-08-05T11:55:31.736Z,1.98
2022-08-05T11:58:08.504Z,2.25
2022-08-05T12:00:41.161Z,1.83
2022-08-05T12:03:23.722Z,1.80
2022-08-05T12:05:59.262Z,2.65
2022-08-05T12:08:27.740Z,2.15
2022-08-05T12:10:56.609Z,2.17
2022-08-05T12:13:47.857Z,2.83
2022-08-05T12:16:19.183Z,2.38
2022-08-05T12:18:53.117Z,2.25
2022-08-05T12:21:23.725Z,2.30
2022-08-05T12:23:56.165Z,3.00
2022-08-05T12:26:24.339Z,2.58
2022-08-05T12:28:54.119Z,2.28
2022-08-05T12:31:23.732Z,1.73
2022-08-05T12:34:03.107Z,2.30
2022-08-05T12:36:31.472Z,2.58
2022-08-05T12:38:59.404Z,2.25
2022-08-05T12:41:34.419Z,2.85
2022-08-05T12:44:03.897Z,2.53
2022-08-05T12:46:32.851Z,2.40
2022-08-05T12:49:05.856Z,2.35
2022-08-05T12:52:12.541Z,2.47
2022-08-05T12:54:33.234Z,2.38
2022-08-05T12:57:02.166Z,2.70
2022-08-05T13:00:08.368Z,2.42
2022-08-05T13:02:22.024Z,2.60
2022-08-05T13:04:59.511Z,2.60
2022-08-05T13:10:19.997Z,2.25
2022-08-05T13:12:51.093Z,2.28
2022-08-05T13:15:41.829Z,2.33
2022-08-05T13:18:19.461Z,2.10
2022-08-05T13:20:50.355Z,2.22
2022-08-05T13:23:22.668Z,2.30
2022-08-05T13:28:21.823Z,2.30
2022-08-05T13:30:51.256Z,2.42
2022-08-05T13:34:23.398Z,2.28
2022-08-05T13:36:11.010Z,2.10
2022-08-05T13:38:43.065Z,2.70
2022-08-05T13:41:11.518Z,2.40
2022-08-05T13:43:44.330Z,2.40
2022-08-05T13:47:01.946Z,2.40
2022-08-05T13:49:11.735Z,2.28
2022-08-05T13:51:42.077Z,2.25
2022-08-05T13:54:16.146Z,2.25
2022-08-05T13:56:45.282Z,3.03
2022-08-05T13:59:21.077Z,3.03
2022-08-05T14:01:56.663Z,2.10
2022-08-05T14:04:50.839Z,2.65
2022-08-05T14:07:25.578Z,2.22
2022-08-05T14:10:13.192Z,2.17
2022-08-05T14:12:42.799Z,2.35
2022-08-05T14:16:08.067Z,2.58
2022-08-05T14:17:59.619Z,2.17
2022-08-05T14:20:29.453Z,1.98
2022-08-05T14:22:59.078Z,2.50
2022-08-05T14:25:28.139Z,2.03
2022-08-05T14:27:56.757Z,2.00
2022-08-05T14:30:28.084Z,2.28
2022-08-05T14:32:56.648Z,2.17
2022-08-05T14:35:37.063Z,2.75
2022-08-05T14:38:32.714Z,7.28
2022-08-05T14:41:05.681Z,7.82
2022-08-05T14:43:59.654Z,7.43
2022-08-05T14:46:23.400Z,11.40
2022-08-05T14:48:58.006Z,9.65
2022-08-05T14:51:28.336Z,9.32
2022-08-05T14:54:25.925Z,8.63
2022-08-05T14:56:48.674Z,7.30
2022-08-05T14:59:16.981Z,5.60
2022-08-05T15:01:48.182Z,4.50
2022-08-05T15:04:17.573Z,4.53
2022-08-05T15:06:49.228Z,3.75
2022-08-05T15:09:52.367Z,4.70
2022-08-05T15:12:08.927Z,5.22
2022-08-05T15:14:48.266Z,5.53
2022-08-05T15:17:46.953Z,6.68
2022-08-05T15:20:09.784Z,6.45
2022-08-05T15:22:45.348Z,6.30
2022-08-05T15:25:14.902Z,9.38
2022-08-05T15:27:52.243Z,15.45
2022-08-05T15:30:22.554Z,12.60
2022-08-05T15:32:50.651Z,6.40
2022-08-05T15:35:18.461Z,8.77
2022-08-05T15:38:33.918Z,5.05
2022-08-05T15:41:00.359Z,4.35
2022-08-05T15:43:27.029Z,6.43
2022-08-05T15:46:00.198Z,5.75
2022-08-05T15:48:29.571Z,4.78
2022-08-05T15:50:57.577Z,5.55
2022-08-05T15:53:26.313Z,5.35
2022-08-05T15:56:02.777Z,5.50
2022-08-05T15:58:35.529Z,9.25
2022-08-05T16:01:17.262Z,5.32
2022-08-05T16:03:48.730Z,5.13
2022-08-05T16:06:19.828Z,5.72
2022-08-05T16:08:50.916Z,4.72
2022-08-05T16:11:40.059Z,4.40
2022-08-05T16:14:10.093Z,3.70
2022-08-05T16:16:46.131Z,4.20
2022-08-05T16:19:25.467Z,3.55
2022-08-05T16:22:02.929Z,2.97
2022-08-05T16:24:40.424Z,3.03
2022-08-05T16:27:15.916Z,3.35
2022-08-05T16:29:50.235Z,3.95
2022-08-05T16:32:28.262Z,3.28
2022-08-05T16:34:58.663Z,3.33
2022-08-05T16:38:02.700Z,3.60
2022-08-05T16:40:28.869Z,4.00
2022-08-05T16:42:58.915Z,4.53
2022-08-05T16:46:04.467Z,4.57
2022-08-05T16:48:25.241Z,5.00
2022-08-05T16:50:54.324Z,5.10
2022-08-05T16:53:32.433Z,5.18
2022-08-05T16:56:11.689Z,4.70
2022-08-05T16:58:41.675Z,4.30
2022-08-05T17:01:10.564Z,4.10
2022-08-05T17:03:38.965Z,4.35
2022-08-05T17:06:07.027Z,4.60
2022-08-05T17:08:52.012Z,3.35
2022-08-05T17:11:25.001Z,2.78
2022-08-05T17:14:05.679Z,2.60
2022-08-05T17:16:36.633Z,2.65
2022-08-05T17:19:22.006Z,2.25
2022-08-05T17:21:51.607Z,2.42
2022-08-05T17:24:35.052Z,2.40
2022-08-05T17:27:06.953Z,2.80
2022-08-05T17:29:40.915Z,2.42
2022-08-05T17:32:11.188Z,2.00
2022-08-05T17:34:40.020Z,2.47
2022-08-05T17:37:29.384Z,2.17
2022-08-05T17:39:56.245Z,2.15
2022-08-05T17:42:30.123Z,1.98
2022-08-05T17:45:17.688Z,2.42
2022-08-05T17:47:52.946Z,1.60
2022-08-05T17:50:28.166Z,1.50
2022-08-05T17:52:58.808Z,1.30
2022-08-05T17:55:38.163Z,1.60
2022-08-05T17:58:09.759Z,1.75
2022-08-05T18:00:45.157Z,1.48
2022-08-05T18:03:39.204Z,1.10
2022-08-05T18:06:11.059Z,1.83
2022-08-05T18:08:44.593Z,1.33
2022-08-05T18:11:24.456Z,1.73
2022-08-05T18:13:57.736Z,1.60
2022-08-05T18:16:29.142Z,1.75
2022-08-05T18:18:57.442Z,1.60
2022-08-05T18:21:25.976Z,1.70
2022-08-05T18:23:54.611Z,1.60
2022-08-05T18:26:29.122Z,1.48
2022-08-05T18:28:57.711Z,1.60
2022-08-05T18:31:25.986Z,1.60
2022-08-05T18:34:02.961Z,1.70
2022-08-05T18:36:30.724Z,1.65
2022-08-05T18:38:58.563Z,1.20
2022-08-05T18:41:56.592Z,1.70
2022-08-05T18:44:15.127Z,1.50
2022-08-05T18:47:01.658Z,1.60
2022-08-05T18:50:03.812Z,1.30
2022-08-05T18:52:41.701Z,2.00
2022-08-05T18:55:19.739Z,1.33
2022-08-05T18:57:52.608Z,1.40
2022-08-05T19:00:27.079Z,1.25
2022-08-05T19:02:57.906Z,1.63
2022-08-05T19:06:11.657Z,1.30
2022-08-05T19:08:30.967Z,1.50
2022-08-05T19:11:04.790Z,1.40
2022-08-05T19:13:36.189Z,1.10
2022-08-05T19:16:25.173Z,1.10
2022-08-05T19:18:53.936Z,2.55
2022-08-05T19:21:27.641Z,1.13
2022-08-05T19:24:06.102Z,1.40
2022-08-05T19:26:45.477Z,1.90
2022-08-05T19:29:23.057Z,1.30
2022-08-05T19:31:51.183Z,1.58
2022-08-05T19:34:19.190Z,1.15
2022-08-05T19:36:48.337Z,1.52
2022-08-05T19:39:17.291Z,1.58
2022-08-05T19:42:06.915Z,1.50
2022-08-05T19:44:36.283Z,1.23
2022-08-05T19:47:06.848Z,1.38
2022-08-05T19:49:37.498Z,1.42
2022-08-05T19:52:30.481Z,1.27
2022-08-05T19:54:55.519Z,1.40
2022-08-05T19:57:49.201Z,1.55
2022-08-05T20:00:11.983Z,1.42
2022-08-05T20:02:40.182Z,1.25
2022-08-05T20:05:16.448Z,1.30
2022-08-05T20:10:26.976Z,1.48
2022-08-05T20:12:55.272Z,1.55
2022-08-05T20:15:50.783Z,1.55
2022-08-05T20:18:33.552Z,1.48
2022-08-05T20:21:00.287Z,1.73
2022-08-05T20:23:39.899Z,2.03
2022-08-05T20:26:18.119Z,1.42
2022-08-05T20:28:48.122Z,1.55
2022-08-05T20:31:16.621Z,1.45
2022-08-05T20:33:45.126Z,1.25
2022-08-05T20:36:14.307Z,1.50
2022-08-05T20:38:53.727Z,1.70
2022-08-05T20:41:43.748Z,1.30
2022-08-05T20:44:29.841Z,1.50
2022-08-05T20:46:59.409Z,1.50
2022-08-05T20:49:27.703Z,1.58
2022-08-05T20:51:57.253Z,1.80
2022-08-05T20:54:42.917Z,1.70
2022-08-05T20:57:24.587Z,1.45
2022-08-05T21:00:19.959Z,1.48
2022-08-05T21:02:57.130Z,2.25
2022-08-05T21:05:25.553Z,1.80
2022-08-05T21:08:06.494Z,1.95
2022-08-05T21:10:34.517Z,1.63
2022-08-05T21:13:11.077Z,1.77
2022-08-05T21:15:44.554Z,1.73
2022-08-05T21:20:54.285Z,1.63
2022-08-05T21:23:23.526Z,1.55
2022-08-05T21:25:52.156Z,1.50
2022-08-05T21:28:30.630Z,1.98
2022-08-05T21:30:58.997Z,2.03
2022-08-05T21:33:37.005Z,1.30
2022-08-05T21:36:08.052Z,1.98
2022-08-05T21:38:40.411Z,1.60
2022-08-05T21:41:08.431Z,1.60
2022-08-05T21:43:41.913Z,3.63
2022-08-05T21:46:19.038Z,1.45
2022-08-05T21:48:48.929Z,1.95
2022-08-05T21:51:25.345Z,1.75
2022-08-05T21:54:05.288Z,2.13
2022-08-05T21:56:33.106Z,1.95
2022-08-05T21:59:07.757Z,1.50
2022-08-05T22:01:36.166Z,1.58
2022-08-05T22:04:04.400Z,1.63
2022-08-05T22:06:37.037Z,1.83
2022-08-05T22:09:14.018Z,1.60
2022-08-05T22:11:43.547Z,1.70
2022-08-05T22:14:33.107Z,1.30
2022-08-05T22:17:05.025Z,1.20
2022-08-05T22:20:01.593Z,1.50
2022-08-05T22:22:27.399Z,1.10
2022-08-05T22:25:18.109Z,1.10
2022-08-05T22:28:08.250Z,0.75
2022-08-05T22:30:43.930Z,0.73
2022-08-05T22:33:56.787Z,1.25
2022-08-05T22:36:11.539Z,1.17
2022-08-05T22:38:42.835Z,1.20
2022-08-05T22:41:10.616Z,0.90
2022-08-05T22:43:40.878Z,0.88
2022-08-05T22:46:13.036Z,0.80
2022-08-05T22:48:51.206Z,0.70
2022-08-05T22:51:23.073Z,0.63
2022-08-05T22:54:06.983Z,0.60
2022-08-05T22:56:34.986Z,0.98
2022-08-05T22:59:45.304Z,0.88
2022-08-05T23:02:05.810Z,0.70
2022-08-05T23:04:35.749Z,0.70
2022-08-05T23:07:03.757Z,0.60
2022-08-05T23:09:53.417Z,0.55
2022-08-05T23:12:23.794Z,0.57
2022-08-05T23:14:52.272Z,0.55
2022-08-05T23:17:34.697Z,0.40
2022-08-05T23:20:16.760Z,0.63
2022-08-05T23:22:47.209Z,0.77
2022-08-05T23:25:17.130Z,0.57
2022-08-05T23:28:04.151Z,0.63
2022-08-05T23:30:39.972Z,0.90
2022-08-05T23:33:22.057Z,1.00
2022-08-05T23:35:55.960Z,0.60
2022-08-05T23:38:26.061Z,0.80
2022-08-05T23:40:54.758Z,0.75
2022-08-05T23:43:25.472Z,0.52
2022-08-05T23:46:19.868Z,0.60
2022-08-05T23:48:59.751Z,0.70
2022-08-05T23:51:52.427Z,1.00
2022-08-05T23:54:25.485Z,0.50
2022-08-05T23:56:55.352Z,0.60
2022-08-05T23:59:37.307Z,0.60
